createdAt,value
2022-10-15T00:00:43.566Z,46.33
2022-10-15T00:03:10.791Z,46.22
2022-10-15T00:05:39.758Z,46.25
2022-10-15T00:08:08.636Z,46.35
2022-10-15T00:10:36.366Z,46.08
2022-10-15T00:13:04.201Z,46.20
2022-10-15T00:15:31.355Z,46.11
2022-10-15T00:17:58.644Z,46.10
2022-10-15T00:20:25.739Z,46.27
2022-10-15T00:22:54.190Z,46.08
2022-10-15T00:25:21.309Z,46.17
2022-10-15T00:27:48.404Z,46.39
2022-10-15T00:30:15.568Z,46.46
2022-10-15T00:32:42.681Z,46.18
2022-10-15T00:35:10.464Z,46.49
2022-10-15T00:37:37.571Z,46.57
2022-10-15T00:40:07.237Z,46.18
2022-10-15T00:42:34.332Z,45.99
2022-10-15T00:45:01.437Z,46.22
2022-10-15T00:47:34.753Z,46.52
2022-10-15T00:50:06.019Z,46.20
2022-10-15T00:52:39.844Z,46.29
2022-10-15T00:55:12.403Z,46.31
2022-10-15T00:57:40.735Z,46.27
2022-10-15T01:00:10.770Z,46.47
2022-10-15T01:02:37.899Z,46.52
2022-10-15T01:05:06.355Z,46.17
2022-10-15T01:07:33.523Z,46.26
2022-10-15T01:10:01.553Z,46.26
2022-10-15T01:12:44.313Z,46.59
2022-10-15T01:15:19.650Z,46.50
2022-10-15T01:17:50.930Z,46.33
2022-10-15T01:20:44.413Z,46.55
2022-10-15T01:23:31.472Z,46.36
2022-10-15T01:26:16.406Z,46.55
2022-10-15T01:28:50.968Z,46.42
2022-10-15T01:31:25.195Z,46.71
2022-10-15T01:33:58.663Z,46.57
2022-10-15T01:36:34.256Z,46.84
2022-10-15T01:39:09.461Z,46.70
2022-10-15T01:41:42.184Z,46.64
2022-10-15T01:44:13.052Z,46.59
2022-10-15T01:46:46.909Z,46.55
2022-10-15T01:49:17.200Z,46.29
2022-10-15T01:51:44.880Z,46.33
2022-10-15T01:54:16.648Z,46.46
2022-10-15T01:56:45.691Z,46.17
2022-10-15T01:59:13.297Z,46.49
2022-10-15T02:04:21.048Z,46.41
2022-10-15T02:06:53.318Z,46.56
2022-10-15T02:09:30.768Z,46.44
2022-10-15T02:12:07.040Z,46.37
2022-10-15T02:14:42.560Z,46.43
2022-10-15T02:17:11.623Z,46.49
2022-10-15T02:19:44.115Z,46.31
2022-10-15T02:22:16.620Z,46.40
2022-10-15T02:24:53.060Z,46.45
2022-10-15T02:27:24.563Z,46.47
2022-10-15T02:29:53.939Z,46.62
2022-10-15T02:32:23.588Z,46.62
2022-10-15T02:34:52.536Z,46.38
2022-10-15T02:37:22.392Z,46.76
2022-10-15T02:39:49.583Z,46.79
2022-10-15T02:42:18.007Z,46.73
2022-10-15T02:44:45.384Z,46.59
2022-10-15T02:47:12.842Z,46.18
2022-10-15T02:49:41.363Z,46.47
2022-10-15T02:52:08.560Z,46.50
2022-10-15T02:54:35.685Z,46.57
2022-10-15T02:57:02.852Z,46.55
2022-10-15T02:59:29.972Z,46.38
2022-10-15T03:01:57.081Z,46.39
2022-10-15T03:04:24.299Z,46.75
2022-10-15T03:06:52.748Z,46.49
2022-10-15T03:09:19.855Z,46.42
2022-10-15T03:11:46.962Z,46.61
2022-10-15T03:14:14.451Z,46.71
2022-10-15T03:16:41.587Z,46.67
2022-10-15T03:19:09.057Z,46.75
2022-10-15T03:21:36.232Z,46.86
2022-10-15T03:24:05.243Z,46.62
2022-10-15T03:26:32.375Z,46.93
2022-10-15T03:28:59.489Z,46.68
2022-10-15T03:31:26.591Z,46.62
2022-10-15T03:33:53.679Z,46.77
2022-10-15T03:36:20.832Z,46.50
2022-10-15T03:38:47.921Z,46.56
2022-10-15T03:41:16.381Z,46.65
2022-10-15T03:43:43.507Z,46.70
2022-10-15T03:46:10.737Z,46.71
2022-10-15T03:48:38.021Z,46.46
2022-10-15T03:51:05.560Z,46.57
2022-10-15T03:53:32.658Z,46.67
2022-10-15T03:56:03.610Z,46.60
2022-10-15T03:58:32.287Z,46.62
2022-10-15T04:00:59.455Z,46.52
2022-10-15T04:03:26.604Z,46.48
2022-10-15T04:05:54.748Z,46.45
2022-10-15T04:08:23.105Z,46.67
2022-10-15T04:10:51.117Z,46.31
2022-10-15T04:13:18.214Z,46.77
2022-10-15T04:15:46.661Z,46.69
2022-10-15T04:18:14.215Z,46.56
2022-10-15T04:20:41.458Z,46.67
2022-10-15T04:23:08.649Z,46.78
2022-10-15T04:25:36.412Z,46.69
2022-10-15T04:28:03.826Z,46.36
2022-10-15T04:30:30.968Z,46.71
2022-10-15T04:32:59.416Z,46.77
2022-10-15T04:35:26.538Z,46.72
2022-10-15T04:37:53.634Z,46.55
2022-10-15T04:40:20.740Z,46.57
2022-10-15T04:42:47.894Z,46.44
2022-10-15T04:45:15.233Z,46.23
2022-10-15T04:47:42.871Z,46.51
2022-10-15T04:50:11.527Z,46.72
2022-10-15T04:52:38.645Z,46.34
2022-10-15T04:55:06.754Z,46.79
2022-10-15T04:57:33.977Z,46.47
2022-10-15T05:00:01.082Z,46.60
2022-10-15T05:02:28.234Z,46.51
2022-10-15T05:04:55.488Z,46.51
2022-10-15T05:07:24.191Z,46.42
2022-10-15T05:09:51.434Z,46.72
2022-10-15T05:12:18.571Z,46.77
2022-10-15T05:14:45.672Z,46.89
2022-10-15T05:17:12.776Z,46.66
2022-10-15T05:19:40.035Z,46.90
2022-10-15T05:22:07.132Z,46.74
2022-10-15T05:24:35.570Z,46.83
2022-10-15T05:27:03.236Z,46.73
2022-10-15T05:29:30.496Z,46.65
2022-10-15T05:31:57.580Z,46.66
2022-10-15T05:34:24.910Z,46.48
2022-10-15T05:36:52.017Z,46.62
2022-10-15T05:39:19.198Z,46.55
2022-10-15T05:41:47.701Z,46.74
2022-10-15T05:44:15.310Z,46.63
2022-10-15T05:46:42.608Z,46.61
2022-10-15T05:49:09.712Z,46.70
2022-10-15T05:51:37.719Z,46.61
2022-10-15T05:54:04.825Z,46.50
2022-10-15T05:56:31.944Z,46.72
2022-10-15T05:59:00.398Z,46.75
2022-10-15T06:01:27.590Z,46.71
2022-10-15T06:03:54.744Z,46.75
2022-10-15T06:06:23.384Z,46.64
2022-10-15T06:08:50.874Z,46.65
2022-10-15T06:11:18.352Z,46.82
2022-10-15T06:13:46.719Z,46.60
2022-10-15T06:16:19.515Z,46.48
2022-10-15T06:18:51.665Z,46.66
2022-10-15T06:21:18.773Z,46.73
2022-10-15T06:23:45.872Z,46.54
2022-10-15T06:26:13.072Z,46.68
2022-10-15T06:28:40.242Z,46.75
2022-10-15T06:31:07.898Z,46.66
2022-10-15T06:33:36.710Z,46.55
2022-10-15T06:36:06.054Z,46.73
2022-10-15T06:38:33.410Z,46.55
2022-10-15T06:41:03.488Z,46.55
2022-10-15T06:43:31.222Z,46.59
2022-10-15T06:46:01.262Z,46.45
2022-10-15T06:48:28.416Z,46.63
2022-10-15T06:50:58.167Z,46.49
2022-10-15T06:53:25.271Z,46.69
2022-10-15T06:55:55.808Z,46.61
2022-10-15T06:58:22.926Z,46.85
2022-10-15T07:00:50.098Z,46.75
2022-10-15T07:03:17.270Z,46.83
2022-10-15T07:05:44.367Z,46.70
2022-10-15T07:08:16.859Z,46.81
2022-10-15T07:10:47.271Z,46.66
2022-10-15T07:13:14.388Z,46.70
2022-10-15T07:15:41.499Z,46.60
2022-10-15T07:18:08.621Z,46.53
2022-10-15T07:20:35.704Z,46.72
2022-10-15T07:23:03.320Z,46.80
2022-10-15T07:25:32.002Z,46.76
2022-10-15T07:27:59.146Z,46.88
2022-10-15T07:30:26.352Z,47.42
2022-10-15T07:32:53.540Z,47.01
2022-10-15T07:35:20.629Z,46.72
2022-10-15T07:37:47.716Z,46.82
2022-10-15T07:40:14.996Z,47.57
2022-10-15T07:42:43.628Z,47.39
2022-10-15T07:45:11.172Z,47.26
2022-10-15T07:47:40.285Z,47.04
2022-10-15T07:50:07.985Z,46.96
2022-10-15T07:52:35.088Z,47.08
2022-10-15T07:55:02.248Z,47.06
2022-10-15T07:57:29.344Z,47.35
2022-10-15T07:59:57.804Z,47.22
2022-10-15T08:02:25.263Z,47.06
2022-10-15T08:04:52.575Z,47.48
2022-10-15T08:07:19.677Z,47.35
2022-10-15T08:12:18.736Z,49.79
2022-10-15T08:14:46.701Z,50.52
2022-10-15T08:17:15.199Z,51.29
2022-10-15T08:19:42.286Z,49.66
2022-10-15T08:22:09.543Z,50.50
2022-10-15T08:24:36.665Z,51.39
2022-10-15T08:27:03.854Z,52.08
2022-10-15T08:29:30.954Z,52.13
2022-10-15T08:31:58.070Z,53.19
2022-10-15T08:34:26.637Z,53.55
2022-10-15T08:36:53.762Z,53.20
2022-10-15T08:39:20.866Z,55.28
2022-10-15T08:41:51.687Z,54.85
2022-10-15T08:44:24.930Z,54.28
2022-10-15T08:46:56.172Z,55.92
2022-10-15T08:49:35.530Z,55.08
2022-10-15T08:52:08.459Z,55.47
2022-10-15T08:54:36.164Z,55.01
2022-10-15T08:57:16.957Z,56.23
2022-10-15T08:59:53.476Z,57.37
2022-10-15T09:02:25.617Z,57.60
2022-10-15T09:05:01.744Z,57.90
2022-10-15T09:07:36.592Z,58.48
2022-10-15T09:10:14.958Z,58.72
2022-10-15T09:12:48.608Z,58.41
2022-10-15T09:15:22.629Z,59.26
2022-10-15T09:17:54.485Z,58.18
2022-10-15T09:20:31.026Z,56.92
2022-10-15T09:22:58.410Z,56.09
2022-10-15T09:25:32.411Z,55.68
2022-10-15T09:28:06.316Z,55.03
2022-10-15T09:30:40.495Z,54.81
2022-10-15T09:33:11.779Z,54.52
2022-10-15T09:35:45.227Z,54.41
2022-10-15T09:38:28.589Z,54.17
2022-10-15T09:41:12.997Z,53.92
2022-10-15T09:43:39.948Z,53.44
2022-10-15T09:46:08.911Z,53.28
2022-10-15T09:48:41.216Z,53.16
2022-10-15T09:51:21.272Z,53.21
2022-10-15T09:53:59.505Z,53.15
2022-10-15T09:56:31.977Z,52.80
2022-10-15T09:59:00.232Z,52.94
2022-10-15T10:01:29.451Z,52.87
2022-10-15T10:04:12.060Z,52.41
2022-10-15T10:06:49.955Z,52.73
2022-10-15T10:09:20.092Z,52.56
2022-10-15T10:11:50.235Z,53.14
2022-10-15T10:14:29.820Z,52.39
2022-10-15T10:17:13.646Z,52.45
2022-10-15T10:19:40.815Z,52.31
2022-10-15T10:22:15.581Z,52.39
2022-10-15T10:24:42.889Z,52.02
2022-10-15T10:27:22.134Z,52.25
2022-10-15T10:29:54.583Z,52.10
2022-10-15T10:32:23.962Z,52.11
2022-10-15T10:34:52.865Z,52.04
2022-10-15T10:37:22.747Z,51.90
2022-10-15T10:39:54.626Z,51.80
2022-10-15T10:42:32.743Z,52.08
2022-10-15T10:45:18.791Z,51.89
2022-10-15T10:47:46.502Z,52.16
2022-10-15T10:50:29.937Z,51.93
2022-10-15T10:53:10.128Z,51.74
2022-10-15T10:55:39.445Z,51.76
2022-10-15T10:58:15.120Z,51.79
2022-10-15T11:00:44.019Z,51.51
2022-10-15T11:03:21.716Z,51.51
2022-10-15T11:05:54.114Z,51.50
2022-10-15T11:08:35.500Z,51.21
2022-10-15T11:11:12.470Z,51.18
2022-10-15T11:13:50.122Z,51.27
2022-10-15T11:16:23.499Z,51.19
2022-10-15T11:19:09.343Z,51.05
2022-10-15T11:21:59.724Z,51.36
2022-10-15T11:24:42.589Z,51.12
2022-10-15T11:27:38.344Z,51.13
2022-10-15T11:30:15.789Z,51.24
2022-10-15T11:33:06.676Z,51.24
2022-10-15T11:35:58.745Z,51.23
2022-10-15T11:38:34.497Z,51.55
2022-10-15T11:41:22.341Z,51.29
2022-10-15T11:44:00.557Z,51.45
2022-10-15T11:46:34.245Z,51.25
2022-10-15T11:49:18.235Z,50.88
2022-10-15T11:52:13.292Z,50.92
2022-10-15T11:54:46.763Z,50.85
2022-10-15T11:57:18.865Z,50.89
2022-10-15T11:59:51.389Z,50.59
2022-10-15T12:02:23.183Z,50.64
2022-10-15T12:04:53.620Z,50.71
2022-10-15T12:07:23.979Z,50.58
2022-10-15T12:09:55.355Z,50.52
2022-10-15T12:12:34.497Z,50.40
2022-10-15T12:15:18.403Z,50.37
2022-10-15T12:17:51.667Z,50.59
2022-10-15T12:20:21.602Z,50.68
2022-10-15T12:22:57.598Z,50.37
2022-10-15T12:25:42.781Z,50.38
2022-10-15T12:28:17.075Z,50.59
2022-10-15T12:30:57.843Z,50.63
2022-10-15T12:33:32.430Z,50.45
2022-10-15T12:36:01.540Z,50.58
2022-10-15T12:38:31.843Z,50.99
2022-10-15T12:41:02.435Z,50.58
2022-10-15T12:43:32.941Z,50.60
2022-10-15T12:46:02.659Z,50.53
2022-10-15T12:48:35.666Z,51.16
2022-10-15T12:51:39.191Z,52.28
2022-10-15T12:54:39.380Z,53.38
2022-10-15T12:57:39.789Z,52.95
2022-10-15T13:00:31.322Z,53.04
2022-10-15T13:03:09.681Z,53.00
2022-10-15T13:05:37.229Z,55.08
2022-10-15T13:08:12.555Z,55.94
2022-10-15T13:10:41.256Z,54.90
2022-10-15T13:13:15.469Z,54.51
2022-10-15T13:15:52.032Z,54.49
2022-10-15T13:18:23.385Z,56.09
2022-10-15T13:20:52.439Z,55.68
2022-10-15T13:23:30.005Z,53.34
2022-10-15T13:26:12.306Z,53.02
2022-10-15T13:28:40.872Z,53.00
2022-10-15T13:31:16.013Z,53.02
2022-10-15T13:33:45.980Z,52.96
2022-10-15T13:36:21.704Z,52.56
2022-10-15T13:38:56.881Z,52.51
2022-10-15T13:41:26.941Z,53.02
2022-10-15T13:43:54.565Z,53.31
2022-10-15T13:46:25.306Z,53.23
2022-10-15T13:48:58.032Z,53.31
2022-10-15T13:51:31.785Z,56.58
2022-10-15T13:54:00.665Z,55.67
2022-10-15T13:56:30.858Z,53.77
2022-10-15T13:59:00.617Z,53.92
2022-10-15T14:01:30.453Z,53.36
2022-10-15T14:03:59.137Z,55.07
2022-10-15T14:06:27.980Z,54.23
2022-10-15T14:08:57.348Z,54.08
2022-10-15T14:11:24.981Z,53.91
2022-10-15T14:13:53.856Z,53.83
2022-10-15T14:16:24.483Z,53.73
2022-10-15T14:18:54.904Z,54.07
2022-10-15T14:21:24.404Z,53.65
2022-10-15T14:23:51.551Z,54.01
2022-10-15T14:26:24.269Z,53.79
2022-10-15T14:28:52.223Z,54.34
2022-10-15T14:31:31.880Z,53.63
2022-10-15T14:34:00.468Z,53.82
2022-10-15T14:36:29.448Z,54.48
2022-10-15T14:39:22.019Z,54.78
2022-10-15T14:41:56.295Z,55.10
2022-10-15T14:44:23.448Z,54.67
2022-10-15T14:46:58.677Z,54.52
2022-10-15T14:49:30.329Z,54.92
2022-10-15T14:52:04.524Z,55.00
2022-10-15T14:54:41.189Z,54.84
2022-10-15T14:57:18.628Z,55.09
2022-10-15T14:59:46.165Z,54.77
2022-10-15T15:02:16.300Z,54.77
2022-10-15T15:04:51.278Z,54.92
2022-10-15T15:07:20.180Z,55.04
2022-10-15T15:09:48.477Z,55.39
2022-10-15T15:12:21.681Z,55.17
2022-10-15T15:14:51.645Z,55.45
2022-10-15T15:17:20.788Z,54.08
2022-10-15T15:19:49.900Z,54.60
2022-10-15T15:22:23.805Z,54.32
2022-10-15T15:24:51.127Z,58.17
2022-10-15T15:27:26.314Z,64.21
2022-10-15T15:29:54.421Z,70.05
2022-10-15T15:32:23.770Z,66.85
2022-10-15T15:34:53.797Z,59.23
2022-10-15T15:37:23.278Z,58.93
2022-10-15T15:39:50.702Z,56.47
2022-10-15T15:42:19.391Z,55.51
2022-10-15T15:44:46.993Z,62.69
2022-10-15T15:47:14.745Z,55.74
2022-10-15T15:49:42.208Z,54.36
2022-10-15T15:52:12.712Z,56.31
2022-10-15T15:54:40.591Z,55.52
2022-10-15T15:57:07.836Z,54.84
2022-10-15T15:59:35.064Z,54.88
2022-10-15T16:02:02.260Z,55.58
2022-10-15T16:04:29.468Z,55.27
2022-10-15T16:06:56.770Z,55.41
2022-10-15T16:09:27.001Z,55.48
2022-10-15T16:11:54.176Z,54.94
2022-10-15T16:14:21.280Z,55.27
2022-10-15T16:16:48.400Z,55.95
2022-10-15T16:19:15.514Z,56.26
2022-10-15T16:21:42.664Z,55.71
2022-10-15T16:24:09.768Z,55.78
2022-10-15T16:26:38.270Z,56.05
2022-10-15T16:29:05.387Z,55.41
2022-10-15T16:31:32.489Z,55.72
2022-10-15T16:33:59.591Z,55.92
2022-10-15T16:36:26.711Z,56.90
2022-10-15T16:38:53.820Z,56.30
2022-10-15T16:41:21.098Z,57.76
2022-10-15T16:43:50.149Z,58.38
2022-10-15T16:46:18.839Z,59.61
2022-10-15T16:48:51.336Z,60.31
2022-10-15T16:51:18.467Z,59.79
2022-10-15T16:53:48.599Z,61.39
2022-10-15T16:56:17.836Z,59.30
2022-10-15T16:58:45.152Z,59.10
2022-10-15T17:01:15.586Z,59.46
2022-10-15T17:03:43.261Z,58.60
2022-10-15T17:06:13.409Z,58.42
2022-10-15T17:08:43.529Z,57.63
2022-10-15T17:11:11.970Z,57.98
2022-10-15T17:13:39.318Z,56.99
2022-10-15T17:16:15.485Z,56.77
2022-10-15T17:18:43.139Z,56.29
2022-10-15T17:21:12.559Z,56.28
2022-10-15T17:23:40.060Z,56.16
2022-10-15T17:26:09.469Z,56.14
2022-10-15T17:28:37.087Z,56.12
2022-10-15T17:31:06.511Z,55.91
2022-10-15T17:33:36.285Z,55.78
2022-10-15T17:36:04.338Z,55.48
2022-10-15T17:38:31.754Z,55.46
2022-10-15T17:40:59.586Z,55.54
2022-10-15T17:43:27.262Z,55.46
2022-10-15T17:46:00.681Z,54.93
2022-10-15T17:48:28.095Z,54.99
2022-10-15T17:50:58.577Z,55.12
2022-10-15T17:53:25.792Z,54.90
2022-10-15T17:55:52.980Z,54.98
2022-10-15T17:58:20.215Z,54.76
2022-10-15T18:00:52.173Z,54.83
2022-10-15T18:03:19.276Z,54.77
2022-10-15T18:05:46.405Z,54.52
2022-10-15T18:08:15.081Z,54.52
2022-10-15T18:10:42.581Z,54.38
2022-10-15T18:13:10.212Z,54.61
2022-10-15T18:15:38.805Z,54.51
2022-10-15T18:18:06.021Z,54.90
2022-10-15T18:20:33.120Z,54.65
2022-10-15T18:23:00.228Z,54.52
2022-10-15T18:25:28.684Z,54.53
2022-10-15T18:27:55.767Z,54.52
2022-10-15T18:30:22.883Z,54.28
2022-10-15T18:32:51.261Z,66.31
2022-10-15T18:35:20.355Z,58.54
2022-10-15T18:37:47.457Z,57.02
2022-10-15T18:40:14.577Z,57.00
2022-10-15T18:42:47.547Z,56.19
2022-10-15T18:45:15.140Z,56.06
2022-10-15T18:47:42.228Z,56.34
2022-10-15T18:50:09.766Z,56.29
2022-10-15T18:52:39.860Z,56.39
2022-10-15T18:55:08.585Z,56.31
2022-10-15T18:57:35.698Z,56.24
2022-10-15T19:00:05.730Z,56.43
2022-10-15T19:02:32.840Z,56.31
2022-10-15T19:04:59.940Z,56.19
2022-10-15T19:07:30.002Z,56.34
2022-10-15T19:09:58.693Z,56.46
2022-10-15T19:12:26.130Z,56.09
2022-10-15T19:14:53.370Z,55.85
2022-10-15T19:17:21.858Z,56.08
2022-10-15T19:19:48.970Z,55.95
2022-10-15T19:22:16.326Z,55.79
2022-10-15T19:24:43.459Z,55.71
2022-10-15T19:27:10.718Z,55.73
2022-10-15T19:29:38.013Z,55.73
2022-10-15T19:32:05.538Z,55.94
2022-10-15T19:34:34.069Z,55.62
2022-10-15T19:37:01.628Z,55.42
2022-10-15T19:39:28.984Z,55.04
2022-10-15T19:41:56.082Z,54.50
2022-10-15T19:44:23.218Z,54.44
2022-10-15T19:46:50.368Z,54.15
2022-10-15T19:49:17.763Z,53.76
2022-10-15T19:51:49.225Z,53.47
2022-10-15T19:54:17.318Z,53.39
2022-10-15T19:56:44.514Z,53.77
2022-10-15T19:59:11.859Z,53.29
2022-10-15T20:01:39.159Z,53.45
2022-10-15T20:04:07.081Z,53.42
2022-10-15T20:06:35.643Z,53.32
2022-10-15T20:09:04.545Z,53.35
2022-10-15T20:11:31.924Z,53.02
2022-10-15T20:13:59.561Z,52.95
2022-10-15T20:16:28.797Z,52.85
2022-10-15T20:19:01.057Z,52.86
2022-10-15T20:21:28.217Z,52.91
2022-10-15T20:23:55.738Z,52.70
2022-10-15T20:26:24.257Z,52.72
2022-10-15T20:28:51.401Z,52.89
2022-10-15T20:31:19.750Z,52.81
2022-10-15T20:33:47.214Z,52.68
2022-10-15T20:36:17.970Z,52.66
2022-10-15T20:38:48.206Z,52.83
2022-10-15T20:41:17.207Z,52.43
2022-10-15T20:43:46.413Z,52.47
2022-10-15T20:46:18.443Z,52.64
2022-10-15T20:48:46.081Z,52.76
2022-10-15T20:51:17.360Z,52.62
2022-10-15T20:53:45.533Z,52.55
2022-10-15T20:56:13.137Z,52.62
2022-10-15T20:58:40.317Z,52.56
2022-10-15T21:01:08.966Z,52.40
2022-10-15T21:03:36.193Z,52.49
2022-10-15T21:06:03.348Z,52.82
2022-10-15T21:08:30.576Z,52.64
2022-10-15T21:11:01.402Z,52.37
2022-10-15T21:13:28.536Z,52.34
2022-10-15T21:15:58.123Z,52.15
2022-10-15T21:18:27.028Z,52.24
2022-10-15T21:20:54.213Z,52.10
2022-10-15T21:23:21.363Z,52.03
2022-10-15T21:25:48.444Z,52.11
2022-10-15T21:28:15.611Z,52.36
2022-10-15T21:30:42.716Z,52.23
2022-10-15T21:33:09.832Z,52.01
2022-10-15T21:35:38.285Z,52.01
2022-10-15T21:38:05.464Z,52.28
2022-10-15T21:40:32.558Z,52.03
2022-10-15T21:42:59.640Z,52.01
2022-10-15T21:45:26.789Z,51.99
2022-10-15T21:47:53.883Z,51.97
2022-10-15T21:50:20.961Z,52.05
2022-10-15T21:52:49.441Z,52.03
2022-10-15T21:55:16.723Z,52.10
2022-10-15T21:57:43.802Z,52.15
2022-10-15T22:00:14.632Z,51.95
2022-10-15T22:02:41.737Z,51.92
2022-10-15T22:05:09.115Z,51.87
2022-10-15T22:07:38.439Z,51.98
2022-10-15T22:10:09.018Z,51.71
2022-10-15T22:12:36.226Z,51.75
2022-10-15T22:15:03.645Z,51.91
2022-10-15T22:17:30.768Z,51.77
2022-10-15T22:19:58.015Z,52.07
2022-10-15T22:22:25.295Z,51.88
2022-10-15T22:24:52.614Z,51.98
2022-10-15T22:27:21.095Z,52.01
2022-10-15T22:29:48.178Z,51.88
2022-10-15T22:32:15.270Z,51.71
2022-10-15T22:34:42.363Z,51.95
2022-10-15T22:37:09.474Z,51.85
2022-10-15T22:39:36.556Z,52.09
2022-10-15T22:42:03.883Z,51.97
2022-10-15T22:44:32.322Z,52.24
2022-10-15T22:46:59.420Z,51.94
2022-10-15T22:49:26.843Z,51.86
2022-10-15T22:51:53.938Z,52.11
2022-10-15T22:54:22.002Z,52.13
2022-10-15T22:56:50.199Z,51.87
2022-10-15T22:59:17.883Z,52.07
2022-10-15T23:01:46.439Z,51.80
2022-10-15T23:04:15.388Z,51.84
2022-10-15T23:06:42.772Z,51.83
2022-10-15T23:09:11.230Z,51.80
2022-10-15T23:11:40.101Z,51.94
2022-10-15T23:14:10.193Z,52.06
2022-10-15T23:16:39.721Z,51.68
2022-10-15T23:19:12.587Z,51.89
2022-10-15T23:21:42.551Z,51.74
2022-10-15T23:24:09.670Z,51.67
2022-10-15T23:26:37.225Z,51.78
2022-10-15T23:29:05.814Z,51.95
2022-10-15T23:31:35.007Z,51.82
2022-10-15T23:34:04.307Z,52.11
2022-10-15T23:36:34.376Z,51.92
2022-10-15T23:39:04.392Z,52.16
2022-10-15T23:41:31.821Z,52.22
2022-10-15T23:43:59.690Z,52.00
2022-10-15T23:46:27.168Z,51.76
2022-10-15T23:48:54.351Z,51.72
2022-10-15T23:51:23.720Z,51.74
2022-10-15T23:53:53.062Z,51.69
2022-10-15T23:56:21.093Z,52.14
2022-10-15T23:58:49.531Z,51.93
